Time;durP1;ratioP1;P1;durP2;ratioP2;P2;SDS_P1;SDS_P2;PMS_P1;PMS_P2;Temp;Humidity;BMP_temperature;BMP_pressure;BME280_temperature;BME280_humidity;BME280_pressure;Samples;Min_cycle;Max_cycle;Signal;HPM_P1;HPM_P2
2022/03/05 00:00:43;;;;;;;31.60;12.00;;;;;;;;;;4909847;28;107306;-67
2022/03/05 00:03:10;;;;;;;29.48;11.45;;;;;;;;;;4910725;28;106670;-65
2022/03/05 00:05:37;;;;;;;31.98;11.57;;;;;;;;;;4907314;28;107447;-66
2022/03/05 00:08:03;;;;;;;33.10;12.10;;;;;;;;;;4914879;28;105803;-65
2022/03/05 00:10:30;;;;;;;30.05;11.20;;;;;;;;;;4910679;28;106589;-65
2022/03/05 00:12:56;;;;;;;31.08;12.32;;;;;;;;;;4909020;28;106924;-65
2022/03/05 00:15:26;;;;;;;30.58;12.32;;;;;;;;;;4908482;28;106843;-65
2022/03/05 00:17:52;;;;;;;28.00;11.63;;;;;;;;;;4910306;28;106329;-65
2022/03/05 00:20:19;;;;;;;27.45;10.50;;;;;;;;;;4910702;28;106164;-65
2022/03/05 00:22:51;;;;;;;31.05;11.23;;;;;;;;;;4910764;28;107125;-65
2022/03/05 00:25:18;;;;;;;27.20;10.95;;;;;;;;;;4909096;28;106767;-65
2022/03/05 00:27:45;;;;;;;36.50;12.20;;;;;;;;;;4915960;28;107810;-66
2022/03/05 00:30:11;;;;;;;29.50;11.73;;;;;;;;;;4911986;28;107000;-65
2022/03/05 00:32:38;;;;;;;33.78;12.00;;;;;;;;;;4918196;28;106296;-66
2022/03/05 00:35:05;;;;;;;29.58;11.52;;;;;;;;;;4912949;28;106854;-65
2022/03/05 00:37:31;;;;;;;29.77;11.60;;;;;;;;;;4910351;28;107385;-65
2022/03/05 00:39:58;;;;;;;26.48;11.65;;;;;;;;;;4909843;28;106375;-65
2022/03/05 00:42:24;;;;;;;29.02;10.88;;;;;;;;;;4909625;28;107061;-65
2022/03/05 00:44:51;;;;;;;28.17;11.35;;;;;;;;;;4917445;28;107512;-66
2022/03/05 00:47:18;;;;;;;33.83;10.63;;;;;;;;;;4908487;28;107310;-67
2022/03/05 00:49:45;;;;;;;30.67;12.05;;;;;;;;;;4912992;28;107700;-67
2022/03/05 00:52:11;;;;;;;30.05;11.60;;;;;;;;;;4912867;28;107801;-66
2022/03/05 00:54:37;;;;;;;30.75;11.45;;;;;;;;;;4910739;28;106726;-67
2022/03/05 00:57:04;;;;;;;31.10;11.90;;;;;;;;;;4907816;28;108134;-66
2022/03/05 00:59:31;;;;;;;31.77;11.65;;;;;;;;;;4909416;28;105977;-67
2022/03/05 01:01:57;;;;;;;30.70;11.35;;;;;;;;;;4921509;28;106361;-67
2022/03/05 01:04:24;;;;;;;33.00;11.75;;;;;;;;;;4913901;28;109248;-66
2022/03/05 01:06:50;;;;;;;27.98;10.63;;;;;;;;;;4914798;28;105972;-66
2022/03/05 01:09:17;;;;;;;30.10;11.73;;;;;;;;;;4918826;28;106454;-67
2022/03/05 01:11:44;;;;;;;30.33;11.57;;;;;;;;;;4908989;28;107249;-67
2022/03/05 01:14:11;;;;;;;26.73;10.60;;;;;;;;;;4911969;28;105955;-67
2022/03/05 01:16:37;;;;;;;30.10;11.80;;;;;;;;;;4910127;28;106215;-67
2022/03/05 01:19:04;;;;;;;30.30;11.68;;;;;;;;;;4917819;28;106212;-67
2022/03/05 01:21:30;;;;;;;27.55;10.48;;;;;;;;;;4916847;28;106175;-66
2022/03/05 01:23:57;;;;;;;32.33;11.93;;;;;;;;;;4909461;28;106430;-67
2022/03/05 01:26:23;;;;;;;31.67;11.98;;;;;;;;;;4899978;28;106462;-67
2022/03/05 01:28:49;;;;;;;29.20;11.32;;;;;;;;;;4910070;28;108364;-66
2022/03/05 01:31:16;;;;;;;35.13;12.07;;;;;;;;;;4913593;28;107796;-67
2022/03/05 01:33:42;;;;;;;31.58;12.05;;;;;;;;;;4910995;28;105950;-67
2022/03/05 01:36:09;;;;;;;34.17;11.65;;;;;;;;;;4912743;28;106334;-68
2022/03/05 01:38:35;;;;;;;28.08;11.15;;;;;;;;;;4909525;28;106400;-67
2022/03/05 01:41:01;;;;;;;31.33;12.15;;;;;;;;;;4909129;28;107501;-67
2022/03/05 01:43:28;;;;;;;30.85;12.15;;;;;;;;;;4907613;28;107277;-67
2022/03/05 01:45:54;;;;;;;28.30;11.63;;;;;;;;;;4900820;28;106410;-67
2022/03/05 01:48:21;;;;;;;31.02;11.25;;;;;;;;;;4909245;28;105959;-66
2022/03/05 01:50:47;;;;;;;30.95;11.80;;;;;;;;;;4907794;28;107365;-66
2022/03/05 01:53:14;;;;;;;35.13;11.77;;;;;;;;;;4909252;28;106285;-66
2022/03/05 01:55:41;;;;;;;31.83;11.60;;;;;;;;;;4909749;28;106586;-66
2022/03/05 01:58:08;;;;;;;29.45;11.27;;;;;;;;;;4915317;28;106085;-66
2022/03/05 02:00:34;;;;;;;32.53;11.38;;;;;;;;;;4910183;28;106776;-65
2022/03/05 02:03:01;;;;;;;32.58;12.35;;;;;;;;;;4906733;28;107422;-65
2022/03/05 02:05:28;;;;;;;31.65;11.95;;;;;;;;;;4907579;28;106640;-65
2022/03/05 02:07:54;;;;;;;30.00;12.05;;;;;;;;;;4909302;28;106223;-65
2022/03/05 02:10:21;;;;;;;32.33;11.68;;;;;;;;;;4914543;28;107330;-65
2022/03/05 02:12:47;;;;;;;31.48;11.32;;;;;;;;;;4909484;28;106183;-65
2022/03/05 02:15:14;;;;;;;31.02;11.80;;;;;;;;;;4909857;28;106435;-66
2022/03/05 02:17:40;;;;;;;30.30;11.15;;;;;;;;;;4914445;28;107464;-66
2022/03/05 02:20:07;;;;;;;31.67;12.10;;;;;;;;;;4907574;28;107423;-69
2022/03/05 02:22:34;;;;;;;33.38;11.73;;;;;;;;;;4918154;28;107780;-67
2022/03/05 02:25:03;;;;;;;30.70;12.13;;;;;;;;;;4911203;28;107425;-67
2022/03/05 02:27:29;;;;;;;32.47;12.10;;;;;;;;;;4909396;28;106346;-65
2022/03/05 02:29:56;;;;;;;33.08;12.05;;;;;;;;;;4908362;28;107352;-67
2022/03/05 02:32:23;;;;;;;32.47;12.20;;;;;;;;;;4908391;28;106107;-65
2022/03/05 02:34:50;;;;;;;32.15;11.77;;;;;;;;;;4907773;28;107394;-65
2022/03/05 02:37:17;;;;;;;31.88;12.05;;;;;;;;;;4907683;28;106987;-65
2022/03/05 02:39:44;;;;;;;31.98;12.10;;;;;;;;;;4919032;28;106338;-66
2022/03/05 02:42:13;;;;;;;33.65;11.95;;;;;;;;;;4908056;28;106420;-65
2022/03/05 02:44:40;;;;;;;30.88;11.25;;;;;;;;;;4909083;28;105989;-66
2022/03/05 02:47:07;;;;;;;34.25;12.35;;;;;;;;;;4909400;28;107370;-67
2022/03/05 02:49:33;;;;;;;31.65;11.98;;;;;;;;;;4908135;28;107836;-65
2022/03/05 02:52:00;;;;;;;35.45;13.13;;;;;;;;;;4907727;28;106320;-65
2022/03/05 02:54:26;;;;;;;34.75;13.75;;;;;;;;;;4900139;28;105902;-65
2022/03/05 02:56:53;;;;;;;34.58;12.65;;;;;;;;;;4913793;28;106253;-65
2022/03/05 02:59:20;;;;;;;34.50;11.75;;;;;;;;;;4912485;28;106038;-65
2022/03/05 03:01:46;;;;;;;41.67;13.02;;;;;;;;;;4914640;28;106848;-65
2022/03/05 03:04:13;;;;;;;35.67;12.60;;;;;;;;;;4914194;28;105810;-65
2022/03/05 03:06:40;;;;;;;32.63;13.05;;;;;;;;;;4918666;28;106812;-65
2022/03/05 03:09:06;;;;;;;35.83;13.50;;;;;;;;;;4917145;28;106335;-65
2022/03/05 03:11:33;;;;;;;41.92;12.50;;;;;;;;;;4914235;28;106115;-65
2022/03/05 03:13:59;;;;;;;44.17;13.10;;;;;;;;;;4910797;28;106657;-65
2022/03/05 03:16:26;;;;;;;36.75;12.65;;;;;;;;;;4912418;28;107986;-65
2022/03/05 03:18:53;;;;;;;38.47;13.07;;;;;;;;;;4910726;28;106889;-65
2022/03/05 03:21:19;;;;;;;36.97;12.63;;;;;;;;;;4911583;28;107702;-67
2022/03/05 03:23:45;;;;;;;35.22;12.93;;;;;;;;;;4914438;28;106318;-66
2022/03/05 03:26:12;;;;;;;34.83;12.48;;;;;;;;;;4910552;28;106184;-66
2022/03/05 03:28:38;;;;;;;43.00;14.07;;;;;;;;;;4912162;28;107855;-66
2022/03/05 03:31:04;;;;;;;37.25;13.77;;;;;;;;;;4910721;28;107040;-66
2022/03/05 03:33:31;;;;;;;38.70;14.13;;;;;;;;;;4909489;28;107075;-66
2022/03/05 03:35:57;;;;;;;40.03;14.48;;;;;;;;;;4911170;28;107129;-66
2022/03/05 03:38:24;;;;;;;40.00;13.55;;;;;;;;;;4909364;28;106019;-66
2022/03/05 03:40:50;;;;;;;33.80;12.98;;;;;;;;;;4918014;28;105678;-66
2022/03/05 03:43:16;;;;;;;34.00;12.82;;;;;;;;;;4910551;28;107625;-66
2022/03/05 03:45:43;;;;;;;38.10;14.68;;;;;;;;;;4914287;28;106320;-66
2022/03/05 03:48:09;;;;;;;37.47;13.93;;;;;;;;;;4913282;28;107370;-66
2022/03/05 03:50:35;;;;;;;38.97;13.52;;;;;;;;;;4912302;28;106219;-66
2022/03/05 03:53:02;;;;;;;35.83;12.80;;;;;;;;;;4908255;28;107867;-66
2022/03/05 03:55:29;;;;;;;35.35;13.60;;;;;;;;;;4910662;28;106983;-66
2022/03/05 03:57:55;;;;;;;37.63;13.50;;;;;;;;;;4910298;28;106461;-67
2022/03/05 04:00:23;;;;;;;37.00;13.40;;;;;;;;;;4915089;28;107475;-66
2022/03/05 04:02:49;;;;;;;40.38;12.80;;;;;;;;;;4911951;28;107815;-66
2022/03/05 04:05:16;;;;;;;35.10;11.88;;;;;;;;;;4913644;28;105809;-65
2022/03/05 04:10:27;;;;;;;33.63;13.25;;;;;;;;;;4911552;28;106443;-64
2022/03/05 04:12:54;;;;;;;40.05;12.98;;;;;;;;;;4913937;28;107680;-67
2022/03/05 04:15:20;;;;;;;34.30;12.65;;;;;;;;;;4911377;28;108688;-65
2022/03/05 04:17:46;;;;;;;39.83;14.07;;;;;;;;;;4910234;28;105891;-64
2022/03/05 04:20:13;;;;;;;43.53;14.30;;;;;;;;;;4910436;28;107329;-65
2022/03/05 04:22:39;;;;;;;40.05;13.93;;;;;;;;;;4908903;28;108687;-65
2022/03/05 04:25:06;;;;;;;45.83;14.40;;;;;;;;;;4910809;28;106130;-65
2022/03/05 04:27:33;;;;;;;42.85;14.70;;;;;;;;;;4914328;28;106767;-65
2022/03/05 04:30:00;;;;;;;36.53;12.45;;;;;;;;;;4911489;28;106570;-65
2022/03/05 04:32:26;;;;;;;39.80;14.00;;;;;;;;;;4910350;28;106700;-65
2022/03/05 04:34:53;;;;;;;41.70;14.35;;;;;;;;;;4908756;28;106273;-65
2022/03/05 04:37:19;;;;;;;40.05;13.70;;;;;;;;;;4910365;28;106479;-65
2022/03/05 04:39:46;;;;;;;40.97;14.75;;;;;;;;;;4913170;28;106755;-65
2022/03/05 04:42:12;;;;;;;41.00;13.75;;;;;;;;;;4913420;28;107466;-65
2022/03/05 04:44:38;;;;;;;40.45;13.98;;;;;;;;;;4910288;28;106804;-65
2022/03/05 04:47:05;;;;;;;37.83;13.70;;;;;;;;;;4910488;28;106831;-65
2022/03/05 04:49:32;;;;;;;37.75;13.68;;;;;;;;;;4921783;28;108855;-67
2022/03/05 04:51:58;;;;;;;42.70;14.73;;;;;;;;;;4910785;28;107025;-67
2022/03/05 04:54:29;;;;;;;44.80;14.87;;;;;;;;;;4909373;28;106915;-67
2022/03/05 04:56:56;;;;;;;40.72;13.63;;;;;;;;;;4909789;28;106213;-67
2022/03/05 04:59:23;;;;;;;46.67;14.70;;;;;;;;;;4909965;28;106808;-66
2022/03/05 05:01:49;;;;;;;43.10;14.37;;;;;;;;;;4909893;28;107460;-65
2022/03/05 05:04:16;;;;;;;39.60;14.53;;;;;;;;;;4914289;28;106291;-66
2022/03/05 05:06:42;;;;;;;44.70;14.80;;;;;;;;;;4908034;28;108380;-65
2022/03/05 05:09:09;;;;;;;41.50;14.03;;;;;;;;;;4908910;28;108235;-66
2022/03/05 05:11:36;;;;;;;40.83;14.07;;;;;;;;;;4914333;28;106397;-65
2022/03/05 05:14:02;;;;;;;43.97;13.90;;;;;;;;;;4909442;28;108093;-65
2022/03/05 05:16:29;;;;;;;45.20;15.03;;;;;;;;;;4909901;28;106433;-66
2022/03/05 05:21:40;;;;;;;43.57;14.33;;;;;;;;;;4910028;28;106565;-65
2022/03/05 05:24:08;;;;;;;39.43;14.07;;;;;;;;;;4909343;28;107182;-66
2022/03/05 05:26:34;;;;;;;48.10;14.53;;;;;;;;;;4912392;28;106060;-65
2022/03/05 05:29:00;;;;;;;49.13;14.87;;;;;;;;;;4909680;28;107454;-65
2022/03/05 05:31:27;;;;;;;49.00;14.65;;;;;;;;;;4911800;28;108298;-66
2022/03/05 05:33:53;;;;;;;46.03;14.70;;;;;;;;;;4909332;28;106312;-65
2022/03/05 05:36:19;;;;;;;44.67;15.33;;;;;;;;;;4909262;28;106032;-65
2022/03/05 05:38:46;;;;;;;46.10;13.83;;;;;;;;;;4909671;28;106328;-66
2022/03/05 05:41:12;;;;;;;43.50;14.00;;;;;;;;;;4919868;28;106341;-65
2022/03/05 05:43:39;;;;;;;45.13;14.77;;;;;;;;;;4908466;28;106691;-67
2022/03/05 05:46:05;;;;;;;47.10;14.23;;;;;;;;;;4922309;28;106753;-67
2022/03/05 05:48:51;;;;;;;43.60;14.53;;;;;;;;;;4909373;28;108328;-65
2022/03/05 05:51:18;;;;;;;52.10;14.60;;;;;;;;;;4909516;28;107196;-66
2022/03/05 05:53:44;;;;;;;44.73;13.77;;;;;;;;;;4914214;28;107120;-65
2022/03/05 05:56:10;;;;;;;39.47;13.07;;;;;;;;;;4911491;28;106177;-66
2022/03/05 05:58:38;;;;;;;47.03;15.07;;;;;;;;;;4908971;28;107125;-65
2022/03/05 06:01:04;;;;;;;41.53;14.73;;;;;;;;;;4917967;28;106342;-67
2022/03/05 06:03:31;;;;;;;47.97;15.00;;;;;;;;;;4907239;28;106050;-66
2022/03/05 06:05:58;;;;;;;46.00;14.27;;;;;;;;;;4907723;28;106381;-65
2022/03/05 06:08:25;;;;;;;46.77;14.43;;;;;;;;;;4908921;28;107357;-65
2022/03/05 06:10:52;;;;;;;49.37;14.07;;;;;;;;;;4908508;28;106287;-65
2022/03/05 06:13:18;;;;;;;47.70;15.40;;;;;;;;;;4909412;28;106000;-65
2022/03/05 06:15:44;;;;;;;41.30;14.50;;;;;;;;;;4914937;28;108070;-64
2022/03/05 06:18:11;;;;;;;50.40;15.63;;;;;;;;;;4907274;28;106895;-67
2022/03/05 06:20:40;;;;;;;47.13;16.10;;;;;;;;;;4906016;28;106545;-66
2022/03/05 06:23:07;;;;;;;43.53;15.60;;;;;;;;;;4912968;28;105843;-68
2022/03/05 06:25:33;;;;;;;40.77;14.40;;;;;;;;;;4908925;28;106530;-66
2022/03/05 06:27:59;;;;;;;44.57;15.27;;;;;;;;;;4908777;28;106356;-66
2022/03/05 06:30:26;;;;;;;48.43;15.63;;;;;;;;;;4912088;28;106242;-64
2022/03/05 06:32:52;;;;;;;44.80;15.13;;;;;;;;;;4912177;28;107712;-65
2022/03/05 06:35:19;;;;;;;44.03;14.40;;;;;;;;;;4909682;28;106238;-65
2022/03/05 06:37:45;;;;;;;43.93;14.13;;;;;;;;;;4917112;28;107027;-66
2022/03/05 06:40:12;;;;;;;41.70;13.90;;;;;;;;;;4911304;28;107404;-65
2022/03/05 06:42:39;;;;;;;38.70;14.30;;;;;;;;;;4912192;28;106169;-66
2022/03/05 06:45:08;;;;;;;41.47;14.70;;;;;;;;;;4909325;28;106323;-65
2022/03/05 06:47:35;;;;;;;51.87;15.17;;;;;;;;;;4914671;28;106775;-65
2022/03/05 06:50:06;;;;;;;44.90;14.33;;;;;;;;;;4912372;28;107392;-65
2022/03/05 06:52:33;;;;;;;44.97;14.90;;;;;;;;;;4920694;28;107885;-65
2022/03/05 06:54:59;;;;;;;47.73;14.70;;;;;;;;;;4911273;28;109317;-65
2022/03/05 06:57:26;;;;;;;47.77;16.47;;;;;;;;;;4911845;28;106342;-65
2022/03/05 06:59:53;;;;;;;46.47;16.60;;;;;;;;;;4913586;28;107603;-65
2022/03/05 07:02:19;;;;;;;46.50;15.47;;;;;;;;;;4911978;28;106086;-64
2022/03/05 07:04:46;;;;;;;51.77;15.67;;;;;;;;;;4911405;28;106844;-65
2022/03/05 07:07:13;;;;;;;45.83;14.53;;;;;;;;;;4915657;28;106232;-66
2022/03/05 07:09:39;;;;;;;52.77;14.53;;;;;;;;;;4912523;28;105951;-66
2022/03/05 07:12:06;;;;;;;49.07;15.13;;;;;;;;;;4920150;28;107272;-65
2022/03/05 07:14:33;;;;;;;51.60;15.60;;;;;;;;;;4911208;28;107463;-66
2022/03/05 07:16:59;;;;;;;45.83;15.47;;;;;;;;;;4909258;28;106372;-65
2022/03/05 07:19:25;;;;;;;47.60;15.47;;;;;;;;;;4910356;28;106898;-66
2022/03/05 07:21:52;;;;;;;45.67;14.88;;;;;;;;;;4922302;28;108283;-66
2022/03/05 07:24:19;;;;;;;44.63;14.50;;;;;;;;;;4914108;28;106989;-66
2022/03/05 07:26:45;;;;;;;55.25;15.82;;;;;;;;;;4922080;28;106382;-66
2022/03/05 07:29:11;;;;;;;44.75;14.88;;;;;;;;;;4912729;28;105703;-66
2022/03/05 07:31:38;;;;;;;43.97;15.68;;;;;;;;;;4916210;28;106610;-66
2022/03/05 07:34:04;;;;;;;48.60;15.55;;;;;;;;;;4913592;28;107434;-63
2022/03/05 07:36:31;;;;;;;47.42;15.40;;;;;;;;;;4908180;28;108412;-65
2022/03/05 07:38:57;;;;;;;49.80;15.80;;;;;;;;;;4920411;28;106615;-65
2022/03/05 07:41:24;;;;;;;42.15;15.18;;;;;;;;;;4908464;28;106602;-65
2022/03/05 07:43:50;;;;;;;48.85;15.75;;;;;;;;;;4920376;28;106683;-65
2022/03/05 07:46:17;;;;;;;43.90;15.55;;;;;;;;;;4910235;28;107705;-65
2022/03/05 07:48:43;;;;;;;48.20;15.95;;;;;;;;;;4909716;28;105948;-65
2022/03/05 07:51:09;;;;;;;51.42;15.57;;;;;;;;;;4921827;28;107276;-65
2022/03/05 07:53:36;;;;;;;42.33;15.65;;;;;;;;;;4909063;28;108781;-65
2022/03/05 07:56:02;;;;;;;47.95;16.13;;;;;;;;;;4909871;28;106285;-65
2022/03/05 07:58:29;;;;;;;47.28;15.77;;;;;;;;;;4908566;28;106850;-65
2022/03/05 08:00:55;;;;;;;46.25;16.08;;;;;;;;;;4909727;28;107466;-66
2022/03/05 08:03:21;;;;;;;52.75;16.45;;;;;;;;;;4924993;28;106008;-65
2022/03/05 08:05:48;;;;;;;48.60;16.98;;;;;;;;;;4922429;28;107227;-65
2022/03/05 08:08:14;;;;;;;46.97;16.33;;;;;;;;;;4910304;28;106506;-65
2022/03/05 08:10:41;;;;;;;44.58;14.93;;;;;;;;;;4909949;28;105769;-65
2022/03/05 08:13:07;;;;;;;45.42;15.32;;;;;;;;;;4914422;28;107310;-66
2022/03/05 08:15:33;;;;;;;51.08;15.55;;;;;;;;;;4911535;28;107787;-69
2022/03/05 08:18:01;;;;;;;48.78;16.20;;;;;;;;;;4909594;28;106956;-64
2022/03/05 08:20:28;;;;;;;52.15;16.52;;;;;;;;;;4904624;28;110805;-65
2022/03/05 08:22:55;;;;;;;44.97;16.23;;;;;;;;;;4905513;28;106980;-64
2022/03/05 08:25:21;;;;;;;48.22;16.60;;;;;;;;;;4905624;28;106027;-63
2022/03/05 08:27:48;;;;;;;49.83;18.13;;;;;;;;;;4906576;28;107791;-65
2022/03/05 08:30:15;;;;;;;48.65;16.45;;;;;;;;;;4908632;28;107247;-65
2022/03/05 08:32:42;;;;;;;43.15;16.17;;;;;;;;;;4906578;28;106865;-65
2022/03/05 08:35:08;;;;;;;46.00;16.98;;;;;;;;;;4915297;28;106362;-65
2022/03/05 08:37:35;;;;;;;44.47;16.60;;;;;;;;;;4913591;28;105833;-65
2022/03/05 08:40:03;;;;;;;46.97;17.17;;;;;;;;;;4908369;28;107616;-64
2022/03/05 08:42:29;;;;;;;47.83;16.90;;;;;;;;;;4913847;28;106126;-65
2022/03/05 08:44:56;;;;;;;46.03;17.25;;;;;;;;;;4914365;28;106740;-65
2022/03/05 08:47:22;;;;;;;49.22;17.15;;;;;;;;;;4918214;28;107453;-64
2022/03/05 08:49:48;;;;;;;50.05;16.80;;;;;;;;;;4913508;28;106557;-65
2022/03/05 08:52:15;;;;;;;51.63;17.88;;;;;;;;;;4909579;28;107421;-65
2022/03/05 08:54:41;;;;;;;45.03;17.05;;;;;;;;;;4910908;28;106126;-64
2022/03/05 08:57:09;;;;;;;45.42;15.95;;;;;;;;;;4906446;28;107609;-66
2022/03/05 08:59:35;;;;;;;47.13;17.42;;;;;;;;;;4904221;28;108143;-64
2022/03/05 09:02:02;;;;;;;48.00;17.30;;;;;;;;;;4908320;28;105618;-66
2022/03/05 09:04:29;;;;;;;47.10;16.77;;;;;;;;;;4903639;28;107052;-65
2022/03/05 09:06:55;;;;;;;41.60;15.95;;;;;;;;;;4904361;28;107750;-65
2022/03/05 09:09:21;;;;;;;48.92;17.58;;;;;;;;;;4920476;28;106215;-64
2022/03/05 09:11:48;;;;;;;47.85;16.75;;;;;;;;;;4908436;28;107845;-64
2022/03/05 09:14:14;;;;;;;50.53;16.83;;;;;;;;;;4911152;28;107601;-67
2022/03/05 09:16:41;;;;;;;50.35;17.20;;;;;;;;;;4912231;28;106842;-65
2022/03/05 09:19:07;;;;;;;52.95;18.25;;;;;;;;;;4909063;28;107572;-66
2022/03/05 09:21:34;;;;;;;50.33;17.92;;;;;;;;;;4906884;28;106296;-64
2022/03/05 09:24:01;;;;;;;50.55;16.20;;;;;;;;;;4908185;28;107430;-64
2022/03/05 09:26:28;;;;;;;47.28;17.60;;;;;;;;;;4907385;28;107756;-63
2022/03/05 09:28:54;;;;;;;47.05;16.73;;;;;;;;;;4908525;28;107733;-64
2022/03/05 09:31:20;;;;;;;53.17;18.17;;;;;;;;;;4911811;28;107408;-64
2022/03/05 09:33:47;;;;;;;48.97;16.52;;;;;;;;;;4908572;28;106552;-65
2022/03/05 09:36:13;;;;;;;50.65;18.05;;;;;;;;;;4907176;28;106373;-64
2022/03/05 09:38:40;;;;;;;45.40;16.67;;;;;;;;;;4909144;28;107825;-65
2022/03/05 09:41:07;;;;;;;46.05;16.42;;;;;;;;;;4907934;28;106415;-67
2022/03/05 09:43:34;;;;;;;47.03;16.67;;;;;;;;;;4908797;28;108133;-65
2022/03/05 09:46:05;;;;;;;43.10;17.58;;;;;;;;;;4911627;28;107371;-65
2022/03/05 09:48:31;;;;;;;46.17;17.48;;;;;;;;;;4910310;28;106425;-64
2022/03/05 09:50:58;;;;;;;42.25;16.65;;;;;;;;;;4906282;28;107014;-64
2022/03/05 09:53:28;;;;;;;50.08;17.27;;;;;;;;;;4917649;28;107431;-64
2022/03/05 09:55:54;;;;;;;44.63;17.70;;;;;;;;;;4907918;28;106950;-64
2022/03/05 09:58:41;;;;;;;46.05;17.27;;;;;;;;;;4906245;28;107932;-64
2022/03/05 10:01:07;;;;;;;42.58;17.75;;;;;;;;;;4907748;28;106239;-66
2022/03/05 10:03:44;;;;;;;45.58;17.48;;;;;;;;;;4909441;28;108361;-63
2022/03/05 10:06:15;;;;;;;47.13;17.85;;;;;;;;;;4905552;28;107422;-64
2022/03/05 10:08:41;;;;;;;47.80;16.95;;;;;;;;;;4912354;28;106240;-64
2022/03/05 10:11:09;;;;;;;47.55;16.95;;;;;;;;;;4912937;28;107243;-65
2022/03/05 10:13:36;;;;;;;48.95;17.70;;;;;;;;;;4918924;28;106980;-63
2022/03/05 10:16:04;;;;;;;44.90;18.08;;;;;;;;;;4915665;28;106058;-63
2022/03/05 10:18:35;;;;;;;52.75;18.13;;;;;;;;;;4906872;28;107327;-63
2022/03/05 10:21:06;;;;;;;49.95;18.02;;;;;;;;;;4910765;28;106913;-65
2022/03/05 10:23:33;;;;;;;44.30;17.48;;;;;;;;;;4911925;28;106489;-63
2022/03/05 10:26:01;;;;;;;50.42;18.38;;;;;;;;;;4911421;28;107287;-64
2022/03/05 10:28:28;;;;;;;45.40;17.65;;;;;;;;;;4916552;28;106461;-64
2022/03/05 10:30:58;;;;;;;43.53;16.70;;;;;;;;;;4913715;28;107046;-68
2022/03/05 10:33:25;;;;;;;;;;;;;;;;;;4909654;28;107275;-64
2022/03/05 10:35:51;;;;;;;44.33;18.13;;;;;;;;;;4915346;28;122236;-63
2022/03/05 10:38:17;;;;;;;53.13;19.58;;;;;;;;;;4909569;28;108132;-66
2022/03/05 10:40:51;;;;;;;49.22;20.42;;;;;;;;;;4912010;28;105935;-65
2022/03/05 10:43:18;;;;;;;51.50;19.15;;;;;;;;;;4911379;28;106426;-64
2022/03/05 10:45:50;;;;;;;47.20;20.83;;;;;;;;;;4912306;28;107718;-65
2022/03/05 10:48:24;;;;;;;47.38;19.77;;;;;;;;;;4915504;28;107179;-64
2022/03/05 10:50:57;;;;;;;49.20;20.38;;;;;;;;;;4914720;28;106489;-64
2022/03/05 10:53:37;;;;;;;47.97;19.05;;;;;;;;;;4909440;28;107611;-64
2022/03/05 10:56:32;;;;;;;50.47;19.92;;;;;;;;;;4918419;28;105903;-63
2022/03/05 10:59:00;;;;;;;53.20;19.15;;;;;;;;;;4903239;28;106930;-63
2022/03/05 11:01:27;;;;;;;45.92;18.67;;;;;;;;;;4910335;28;105944;-63
2022/03/05 11:03:53;;;;;;;49.88;20.17;;;;;;;;;;4907288;28;107308;-63
2022/03/05 11:06:22;;;;;;;47.50;18.77;;;;;;;;;;4908659;28;106344;-63
2022/03/05 11:08:48;;;;;;;48.95;20.13;;;;;;;;;;4915509;28;105952;-63
2022/03/05 11:11:15;;;;;;;43.38;18.08;;;;;;;;;;4912618;28;106454;-64
2022/03/05 11:13:42;;;;;;;47.67;19.25;;;;;;;;;;4903214;28;108180;-64
2022/03/05 11:16:09;;;;;;;48.40;20.25;;;;;;;;;;4900724;28;107220;-65
2022/03/05 11:18:39;;;;;;;49.92;19.77;;;;;;;;;;4919526;28;106969;-64
2022/03/05 11:21:06;;;;;;;41.85;19.33;;;;;;;;;;4910983;28;107816;-64
2022/03/05 11:23:33;;;;;;;48.72;20.98;;;;;;;;;;4913463;28;106973;-63
2022/03/05 11:26:00;;;;;;;41.83;19.10;;;;;;;;;;4922039;28;107816;-65
2022/03/05 11:28:34;;;;;;;46.42;20.65;;;;;;;;;;4912532;28;106988;-64
2022/03/05 11:31:00;;;;;;;45.83;20.35;;;;;;;;;;4905563;28;108000;-63
2022/03/05 11:33:38;;;;;;;46.90;21.08;;;;;;;;;;4911009;28;107366;-64
2022/03/05 11:36:05;;;;;;;46.38;20.58;;;;;;;;;;4924728;28;105969;-65
2022/03/05 11:38:36;;;;;;;43.63;19.80;;;;;;;;;;4910043;28;106218;-66
2022/03/05 11:41:06;;;;;;;46.47;20.48;;;;;;;;;;4903901;28;106890;-65
2022/03/05 11:43:41;;;;;;;41.58;20.25;;;;;;;;;;4914424;28;107209;-65
2022/03/05 11:46:19;;;;;;;43.55;20.98;;;;;;;;;;4907617;28;107396;-66
2022/03/05 11:48:58;;;;;;;44.85;19.85;;;;;;;;;;4908663;28;106343;-65
2022/03/05 11:51:24;;;;;;;42.87;19.83;;;;;;;;;;4910220;28;106776;-65
2022/03/05 11:54:09;;;;;;;47.13;20.98;;;;;;;;;;4907631;28;107391;-65
2022/03/05 11:57:03;;;;;;;44.42;20.38;;;;;;;;;;4914423;28;106922;-66
2022/03/05 11:59:30;;;;;;;44.42;20.17;;;;;;;;;;4914937;28;107108;-64
2022/03/05 12:01:57;;;;;;;46.50;21.30;;;;;;;;;;4908560;28;107426;-65
2022/03/05 12:04:24;;;;;;;43.28;21.13;;;;;;;;;;4910380;28;106644;-65
2022/03/05 12:06:53;;;;;;;46.65;22.25;;;;;;;;;;4911397;28;106255;-65
2022/03/05 12:09:36;;;;;;;46.17;21.83;;;;;;;;;;4908428;28;106140;-64
2022/03/05 12:12:04;;;;;;;43.35;21.48;;;;;;;;;;4899439;28;106539;-64
2022/03/05 12:14:49;;;;;;;49.65;21.98;;;;;;;;;;4905392;28;106409;-65
2022/03/05 12:17:19;;;;;;;44.97;21.27;;;;;;;;;;4900984;28;106054;-65
2022/03/05 12:19:45;;;;;;;48.85;23.20;;;;;;;;;;4916526;28;107127;-65
2022/03/05 12:22:15;;;;;;;49.50;22.45;;;;;;;;;;4914495;28;106839;-65
2022/03/05 12:24:42;;;;;;;47.20;23.88;;;;;;;;;;4912843;28;107997;-64
2022/03/05 12:27:15;;;;;;;44.67;22.52;;;;;;;;;;4913038;28;107462;-65
2022/03/05 12:29:48;;;;;;;48.85;22.73;;;;;;;;;;4912370;28;106251;-64
2022/03/05 12:32:14;;;;;;;43.50;22.48;;;;;;;;;;4897822;28;109132;-65
2022/03/05 12:34:41;;;;;;;47.80;24.98;;;;;;;;;;4896937;28;107860;-65
2022/03/05 12:37:10;;;;;;;46.30;23.20;;;;;;;;;;4908932;28;106952;-67
2022/03/05 12:39:43;;;;;;;44.88;23.10;;;;;;;;;;4921626;28;107183;-65
2022/03/05 12:42:10;;;;;;;47.90;24.20;;;;;;;;;;4907985;28;108924;-65
2022/03/05 12:44:37;;;;;;;42.70;23.55;;;;;;;;;;4910530;28;107605;-65
2022/03/05 12:47:04;;;;;;;43.97;24.35;;;;;;;;;;4916775;28;107437;-64
2022/03/05 12:49:31;;;;;;;43.28;24.08;;;;;;;;;;4915775;28;108166;-66
2022/03/05 12:51:57;;;;;;;47.45;24.73;;;;;;;;;;4911020;28;106724;-65
2022/03/05 12:54:24;;;;;;;44.35;24.02;;;;;;;;;;4909244;28;108273;-64
2022/03/05 12:56:54;;;;;;;43.85;23.85;;;;;;;;;;4918607;28;106270;-65
2022/03/05 12:59:21;;;;;;;46.58;23.33;;;;;;;;;;4905410;28;107064;-65
2022/03/05 13:01:48;;;;;;;41.28;23.63;;;;;;;;;;4907603;28;108542;-65
2022/03/05 13:04:16;;;;;;;46.13;24.25;;;;;;;;;;4908046;28;107059;-64
2022/03/05 13:06:46;;;;;;;40.65;22.77;;;;;;;;;;4911478;28;108053;-64
2022/03/05 13:09:16;;;;;;;44.83;23.98;;;;;;;;;;4907367;28;108027;-64
2022/03/05 13:11:56;;;;;;;43.17;25.20;;;;;;;;;;4910416;28;107454;-65
2022/03/05 13:14:22;;;;;;;40.85;23.38;;;;;;;;;;4907217;28;108472;-65
2022/03/05 13:16:51;;;;;;;47.80;24.55;;;;;;;;;;4906427;28;107517;-65
2022/03/05 13:19:17;;;;;;;44.55;25.52;;;;;;;;;;4905041;28;108731;-63
2022/03/05 13:21:48;;;;;;;44.95;25.40;;;;;;;;;;4901538;28;107759;-63
2022/03/05 13:24:16;;;;;;;44.50;26.08;;;;;;;;;;4904147;28;108874;-64
2022/03/05 13:26:50;;;;;;;39.42;25.02;;;;;;;;;;4906258;28;108830;-64
2022/03/05 13:29:17;;;;;;;41.58;25.30;;;;;;;;;;4903215;28;108838;-64
2022/03/05 13:31:44;;;;;;;42.25;24.88;;;;;;;;;;4906683;28;108481;-65
2022/03/05 13:34:23;;;;;;;41.90;25.10;;;;;;;;;;4913851;28;108842;-65
2022/03/05 13:36:52;;;;;;;42.78;24.92;;;;;;;;;;4901880;28;107896;-63
2022/03/05 13:39:20;;;;;;;42.20;25.42;;;;;;;;;;4906863;28;107911;-65
2022/03/05 13:41:50;;;;;;;42.23;25.50;;;;;;;;;;4904524;28;108910;-64
2022/03/05 13:44:21;;;;;;;41.13;25.10;;;;;;;;;;4907091;28;108198;-64
2022/03/05 13:46:48;;;;;;;39.75;24.08;;;;;;;;;;4903088;28;109293;-64
2022/03/05 13:49:15;;;;;;;41.70;24.60;;;;;;;;;;4901204;28;110411;-64
2022/03/05 13:51:44;;;;;;;38.35;24.92;;;;;;;;;;4902003;28;108795;-67
2022/03/05 13:54:10;;;;;;;;;;;;;;;;;;4902888;28;109926;-64
2022/03/05 13:56:44;;;;;;;38.90;25.23;;;;;;;;;;4904213;28;140333;-67
2022/03/05 13:59:11;;;;;;;40.88;25.17;;;;;;;;;;4901046;28;109731;-67
2022/03/05 14:01:40;;;;;;;40.92;25.13;;;;;;;;;;4898154;28;110118;-66
2022/03/05 14:04:12;;;;;;;41.33;25.85;;;;;;;;;;4908650;28;108546;-65
2022/03/05 14:06:45;;;;;;;40.88;25.48;;;;;;;;;;4906149;28;108439;-65
2022/03/05 14:09:31;;;;;;;46.97;26.80;;;;;;;;;;4902939;28;108905;-64
2022/03/05 14:12:03;;;;;;;41.25;24.38;;;;;;;;;;4903263;28;109249;-65
2022/03/05 14:14:50;;;;;;;39.67;25.50;;;;;;;;;;4902958;28;109087;-65